Time;durP1;ratioP1;P1;durP2;ratioP2;P2;SDS_P1;SDS_P2;PMS_P1;PMS_P2;Temp;Humidity;BMP_temperature;BMP_pressure;BME280_temperature;BME280_humidity;BME280_pressure;Samples;Min_cycle;Max_cycle;Signal;HPM_P1;HPM_P2
2022/12/03 00:02:10;;;;;;;17.40;8.73;;;4.00;99.90;;;;;;5053329;28;20489;-50
2022/12/03 00:04:36;;;;;;;18.52;9.38;;;4.00;99.90;;;;;;5053409;28;20044;-53
2022/12/03 00:07:01;;;;;;;16.30;9.07;;;4.00;99.90;;;;;;5052537;28;20091;-53
2022/12/03 00:09:27;;;;;;;18.42;9.38;;;4.10;99.90;;;;;;5053432;28;20041;-50
2022/12/03 00:11:53;;;;;;;17.65;9.55;;;4.00;99.90;;;;;;5034949;28;20037;-50
2022/12/03 00:14:18;;;;;;;16.00;8.43;;;4.00;99.90;;;;;;5048957;28;20068;-50
2022/12/03 00:16:44;;;;;;;17.65;8.85;;;4.10;99.90;;;;;;5036631;28;20040;-52
2022/12/03 00:19:10;;;;;;;19.05;9.35;;;4.00;99.90;;;;;;5008178;28;20212;-51
2022/12/03 00:21:35;;;;;;;19.42;9.77;;;4.00;99.90;;;;;;5046568;28;20052;-52
2022/12/03 00:24:01;;;;;;;22.13;11.00;;;4.00;99.90;;;;;;5052431;28;20049;-52
2022/12/03 00:26:27;;;;;;;16.65;8.85;;;4.00;99.90;;;;;;5049713;28;20064;-52
2022/12/03 00:28:53;;;;;;;19.67;10.05;;;4.00;99.90;;;;;;5032011;28;20135;-50
2022/12/03 00:31:22;;;;;;;17.42;8.55;;;3.90;99.90;;;;;;5032162;28;20049;-50
2022/12/03 00:33:48;;;;;;;17.80;9.20;;;4.00;99.90;;;;;;5032513;28;20099;-55
2022/12/03 00:36:14;;;;;;;19.58;9.82;;;3.90;99.90;;;;;;5032343;28;20044;-54
2022/12/03 00:38:39;;;;;;;20.20;10.18;;;3.90;99.90;;;;;;5033122;28;20584;-54
2022/12/03 00:41:05;;;;;;;19.02;9.30;;;4.00;99.90;;;;;;5043186;28;20038;-55
2022/12/03 00:43:31;;;;;;;16.70;8.73;;;4.10;99.90;;;;;;5035529;28;20103;-52
2022/12/03 00:45:56;;;;;;;19.48;9.27;;;4.00;99.90;;;;;;5032852;28;20398;-54
2022/12/03 00:48:22;;;;;;;19.23;9.98;;;4.00;99.90;;;;;;5032814;28;20474;-50
2022/12/03 00:50:48;;;;;;;18.52;9.25;;;4.00;99.90;;;;;;5032693;28;20551;-51
2022/12/03 00:53:13;;;;;;;16.55;9.75;;;4.00;99.90;;;;;;5032368;28;20045;-50
2022/12/03 00:55:39;;;;;;;19.05;10.13;;;4.10;99.90;;;;;;5032819;28;20091;-53
2022/12/03 00:58:07;;;;;;;17.52;9.88;;;4.10;99.90;;;;;;5052225;28;20037;-51
2022/12/03 01:00:32;;;;;;;19.83;9.75;;;4.10;99.90;;;;;;5052214;28;20041;-50
2022/12/03 01:02:58;;;;;;;18.33;9.52;;;4.10;99.90;;;;;;5052221;28;20067;-51
2022/12/03 01:05:24;;;;;;;18.45;9.60;;;4.30;99.90;;;;;;5034363;28;20391;-53
2022/12/03 01:07:49;;;;;;;19.02;9.32;;;4.20;99.90;;;;;;5034256;28;20471;-53
2022/12/03 01:10:15;;;;;;;21.98;9.85;;;4.20;99.90;;;;;;5034156;28;20056;-52
2022/12/03 01:12:41;;;;;;;19.63;10.25;;;4.30;99.90;;;;;;5051741;28;20094;-52
2022/12/03 01:15:08;;;;;;;21.90;10.55;;;4.20;99.90;;;;;;5051649;28;20041;-51
2022/12/03 01:17:33;;;;;;;18.65;10.18;;;4.30;99.90;;;;;;5051371;28;20068;-51
2022/12/03 01:20:00;;;;;;;19.23;9.57;;;4.30;99.90;;;;;;5051525;28;20087;-50
2022/12/03 01:22:27;;;;;;;19.13;10.52;;;4.40;99.90;;;;;;5051702;28;20409;-50
2022/12/03 01:24:52;;;;;;;17.60;9.43;;;4.20;99.90;;;;;;5051257;28;20515;-51
2022/12/03 01:27:18;;;;;;;19.83;10.68;;;4.30;99.90;;;;;;5051594;28;20056;-50
2022/12/03 01:29:44;;;;;;;20.42;10.68;;;4.30;99.90;;;;;;5051778;28;20067;-50
2022/12/03 01:32:16;;;;;;;19.35;9.95;;;4.30;99.90;;;;;;5051203;28;20358;-50
2022/12/03 01:34:46;;;;;;;19.42;11.00;;;4.30;99.90;;;;;;5051129;28;20044;-53
2022/12/03 01:37:12;;;;;;;19.83;10.50;;;4.30;99.90;;;;;;5051350;28;20058;-51
2022/12/03 01:39:40;;;;;;;19.42;10.75;;;4.30;99.90;;;;;;5051420;28;20504;-51
2022/12/03 01:42:07;;;;;;;19.73;10.25;;;4.20;99.90;;;;;;5051499;28;20048;-50
2022/12/03 01:44:38;;;;;;;20.67;9.98;;;4.30;99.90;;;;;;5051734;28;20492;-50
2022/12/03 01:47:06;;;;;;;21.73;10.20;;;4.20;99.90;;;;;;5051701;28;20041;-52
2022/12/03 01:49:51;;;;;;;21.55;11.00;;;4.30;99.90;;;;;;5051691;28;20091;-51
2022/12/03 01:52:21;;;;;;;20.90;10.80;;;4.20;99.90;;;;;;5051619;28;20396;-52
2022/12/03 01:54:51;;;;;;;20.42;10.35;;;4.30;99.90;;;;;;5051782;28;20037;-52
2022/12/03 01:57:46;;;;;;;20.42;10.52;;;4.30;99.90;;;;;;5037763;28;20041;-51
2022/12/03 02:00:17;;;;;;;21.60;12.18;;;4.20;99.90;;;;;;5031795;28;20042;-52
2022/12/03 02:02:43;;;;;;;16.67;9.50;;;4.30;99.90;;;;;;5031631;28;20124;-52
2022/12/03 02:05:19;;;;;;;18.25;10.38;;;4.20;99.90;;;;;;5031714;28;20397;-51
2022/12/03 02:07:45;;;;;;;21.92;9.82;;;4.30;99.90;;;;;;5031445;28;20053;-52
2022/12/03 02:10:12;;;;;;;20.90;10.70;;;4.20;99.90;;;;;;5030909;28;20486;-51
2022/12/03 02:12:58;;;;;;;20.40;10.35;;;4.20;99.90;;;;;;5031717;28;20052;-50
2022/12/03 02:15:24;;;;;;;21.83;10.55;;;4.30;99.90;;;;;;5030819;28;20052;-50
2022/12/03 02:17:50;;;;;;;20.02;10.65;;;4.20;99.90;;;;;;5031071;28;20038;-51
2022/12/03 02:20:15;;;;;;;19.55;10.45;;;4.30;99.90;;;;;;5031387;28;20056;-50
2022/12/03 02:23:02;;;;;;;20.65;10.20;;;4.30;99.90;;;;;;5031159;28;20072;-50
2022/12/03 02:25:33;;;;;;;22.25;11.75;;;4.30;99.90;;;;;;5013305;28;20057;-52
2022/12/03 02:28:00;;;;;;;21.13;11.10;;;4.30;99.90;;;;;;5013585;28;20050;-52
2022/12/03 02:30:28;;;;;;;19.27;10.63;;;4.40;99.90;;;;;;5033602;28;20061;-50
2022/12/03 02:32:55;;;;;;;22.90;10.93;;;4.30;99.90;;;;;;5000867;28;20107;-50
2022/12/03 02:35:31;;;;;;;19.75;10.50;;;4.20;99.90;;;;;;5034987;28;20041;-52
2022/12/03 02:38:20;;;;;;;20.48;11.07;;;4.20;99.90;;;;;;5034922;28;20030;-50
2022/12/03 02:40:48;;;;;;;23.05;10.63;;;4.30;99.90;;;;;;5034919;28;20555;-51
2022/12/03 02:43:15;;;;;;;22.70;11.40;;;4.30;99.90;;;;;;5034496;28;20033;-50
2022/12/03 02:45:48;;;;;;;21.02;11.02;;;4.20;99.90;;;;;;5034538;28;20057;-50
2022/12/03 02:48:22;;;;;;;20.73;11.40;;;4.20;99.90;;;;;;5034953;28;20042;-54
2022/12/03 02:50:53;;;;;;;19.80;10.55;;;4.20;99.90;;;;;;5034780;28;20104;-49
2022/12/03 02:53:37;;;;;;;21.73;10.52;;;4.20;99.90;;;;;;5034540;28;20042;-51
2022/12/03 02:56:04;;;;;;;20.95;11.35;;;4.20;99.90;;;;;;5038341;28;20056;-53
2022/12/03 02:58:31;;;;;;;19.63;10.73;;;4.20;99.90;;;;;;5054397;28;20507;-50
2022/12/03 03:00:58;;;;;;;21.63;11.25;;;4.20;99.90;;;;;;5054586;28;20132;-50
2022/12/03 03:03:26;;;;;;;22.35;11.40;;;4.30;99.90;;;;;;5054330;28;20460;-50
2022/12/03 03:05:53;;;;;;;20.10;10.75;;;4.30;99.90;;;;;;5036840;28;20130;-51
2022/12/03 03:08:19;;;;;;;21.58;11.43;;;4.30;99.90;;;;;;5054257;28;20041;-51
2022/12/03 03:10:46;;;;;;;20.05;10.88;;;4.20;99.90;;;;;;5054331;28;20554;-50
2022/12/03 03:13:17;;;;;;;21.90;11.23;;;4.20;99.90;;;;;;5054121;28;20047;-52
2022/12/03 03:15:43;;;;;;;21.40;11.52;;;4.10;99.90;;;;;;5054129;28;20049;-49
2022/12/03 03:18:11;;;;;;;22.20;11.18;;;4.10;99.90;;;;;;5054246;28;20083;-50
2022/12/03 03:20:37;;;;;;;22.20;11.23;;;4.10;99.90;;;;;;5053977;28;20116;-50
2022/12/03 03:23:11;;;;;;;22.25;11.30;;;4.10;99.90;;;;;;5054038;28;20143;-50
2022/12/03 03:25:43;;;;;;;23.45;12.10;;;4.10;99.90;;;;;;5054006;28;20457;-50
2022/12/03 03:28:09;;;;;;;23.58;11.98;;;4.10;99.90;;;;;;5054395;28;20362;-53
2022/12/03 03:30:37;;;;;;;25.67;12.20;;;4.20;99.90;;;;;;5053935;28;20041;-54
2022/12/03 03:33:03;;;;;;;24.00;12.10;;;4.10;99.90;;;;;;5053876;28;20075;-52
2022/12/03 03:35:29;;;;;;;22.73;11.77;;;4.10;99.90;;;;;;5036029;28;20476;-52
2022/12/03 03:37:57;;;;;;;22.92;11.95;;;4.20;99.90;;;;;;5053892;28;20115;-53
2022/12/03 03:40:23;;;;;;;20.23;11.23;;;4.10;99.90;;;;;;5053515;28;20037;-54
2022/12/03 03:42:49;;;;;;;21.00;11.15;;;4.10;99.90;;;;;;5053072;28;20433;-50
2022/12/03 03:45:15;;;;;;;23.80;12.27;;;4.20;99.90;;;;;;5053716;28;20040;-51
2022/12/03 03:47:42;;;;;;;20.92;11.88;;;4.00;99.90;;;;;;5053683;28;20501;-53
2022/12/03 03:50:09;;;;;;;20.42;11.32;;;4.00;99.90;;;;;;5053460;28;20048;-50
2022/12/03 03:52:36;;;;;;;24.88;13.13;;;4.10;99.90;;;;;;5053626;28;20048;-51
2022/12/03 03:55:03;;;;;;;25.13;12.98;;;4.10;99.90;;;;;;5053377;28;20469;-52
2022/12/03 03:57:29;;;;;;;26.25;12.50;;;4.10;99.90;;;;;;5053368;28;20045;-53
2022/12/03 03:59:57;;;;;;;24.88;12.00;;;4.00;99.90;;;;;;5035506;28;20041;-51
2022/12/03 04:02:25;;;;;;;25.60;12.57;;;4.00;99.90;;;;;;5053352;28;20386;-51
2022/12/03 04:04:51;;;;;;;23.17;12.63;;;4.00;99.90;;;;;;5053365;28;20052;-53
2022/12/03 04:07:17;;;;;;;20.05;11.45;;;4.10;99.90;;;;;;5053121;28;20504;-50
2022/12/03 04:09:43;;;;;;;22.73;12.30;;;4.10;99.90;;;;;;5053360;28;20300;-52
2022/12/03 04:14:55;;;;;;;22.80;12.70;;;4.10;99.90;;;;;;5053045;28;20116;-53
2022/12/03 04:17:21;;;;;;;27.17;12.13;;;4.00;99.90;;;;;;5034987;28;20119;-52
2022/12/03 04:19:46;;;;;;;27.23;13.70;;;4.00;99.90;;;;;;5052164;28;20044;-51
2022/12/03 04:28:47;;;;;;;23.63;13.27;;;3.90;99.90;;;;;;5052684;28;20052;-51
2022/12/03 04:30:26;;;;;;;25.70;12.75;;;3.90;99.90;;;;;;5052496;28;20052;-52
2022/12/03 04:35:42;;;;;;;23.95;11.70;;;3.90;99.90;;;;;;5052591;28;20047;-54
2022/12/03 04:38:13;;;;;;;24.58;12.23;;;3.90;99.90;;;;;;5052716;28;20037;-52
2022/12/03 04:43:24;;;;;;;21.90;11.82;;;3.80;99.90;;;;;;5052100;28;20055;-52
2022/12/03 04:45:49;;;;;;;23.00;11.93;;;3.80;99.90;;;;;;5034612;28;20044;-51
2022/12/03 04:48:15;;;;;;;24.85;11.90;;;3.70;99.90;;;;;;5052462;28;20082;-51
2022/12/03 04:50:41;;;;;;;22.80;11.68;;;3.80;99.90;;;;;;5052623;28;20134;-51
2022/12/03 04:53:07;;;;;;;23.63;12.35;;;3.70;99.90;;;;;;5052183;28;20045;-54
2022/12/03 04:55:32;;;;;;;23.95;12.75;;;3.80;99.90;;;;;;5052389;28;20041;-52
2022/12/03 04:57:58;;;;;;;24.63;13.00;;;3.80;99.90;;;;;;5032966;28;20041;-52
2022/12/03 05:00:24;;;;;;;24.65;12.60;;;3.80;99.90;;;;;;5032385;28;20375;-53
2022/12/03 05:02:50;;;;;;;25.58;14.20;;;3.80;99.90;;;;;;5032171;28;20410;-55
2022/12/03 05:05:16;;;;;;;23.08;10.82;;;3.70;99.90;;;;;;5032453;28;20045;-53
2022/12/03 05:07:42;;;;;;;25.75;10.57;;;3.70;99.90;;;;;;5032305;28;20043;-54
2022/12/03 05:10:09;;;;;;;19.63;9.02;;;3.70;99.90;;;;;;5032489;28;20116;-53
2022/12/03 05:12:35;;;;;;;20.90;9.57;;;3.70;99.90;;;;;;5031933;28;20080;-52
2022/12/03 05:15:01;;;;;;;23.67;10.02;;;3.70;99.90;;;;;;5032269;28;20045;-52
2022/12/03 05:17:26;;;;;;;21.08;9.75;;;3.70;99.90;;;;;;5031978;28;20405;-52
2022/12/03 05:22:36;;;;;;;21.27;10.38;;;3.70;99.90;;;;;;5031923;28;20464;-52
2022/12/03 05:25:02;;;;;;;23.67;10.85;;;3.70;99.90;;;;;;5014546;28;20056;-51
2022/12/03 05:27:28;;;;;;;21.17;9.90;;;3.60;99.90;;;;;;5031816;28;20103;-54
2022/12/03 05:29:53;;;;;;;21.00;10.07;;;3.70;99.90;;;;;;5032063;28;20049;-52
2022/12/03 05:32:19;;;;;;;23.10;9.88;;;3.70;99.90;;;;;;5032005;28;20038;-52
2022/12/03 05:34:45;;;;;;;21.80;9.45;;;3.60;99.90;;;;;;5031893;28;20120;-51
2022/12/03 05:37:11;;;;;;;22.08;10.70;;;3.70;99.90;;;;;;5031870;28;20037;-51
2022/12/03 05:39:36;;;;;;;23.77;10.65;;;3.70;99.90;;;;;;5031895;28;20041;-52
2022/12/03 05:44:46;;;;;;;21.17;9.93;;;3.70;99.90;;;;;;5031971;28;20124;-52
2022/12/03 05:47:12;;;;;;;24.13;10.95;;;3.70;99.90;;;;;;5031899;28;20465;-51
2022/12/03 05:49:38;;;;;;;20.98;10.27;;;3.60;99.90;;;;;;5031728;28;20089;-51
2022/12/03 05:52:03;;;;;;;22.27;11.23;;;4.20;99.90;;;;;;5031677;28;20073;-51
2022/12/03 05:54:29;;;;;;;23.17;10.48;;;3.70;99.90;;;;;;5031751;28;20038;-51
2022/12/03 05:56:55;;;;;;;22.13;10.40;;;3.60;99.90;;;;;;5024379;28;20073;-51
2022/12/03 05:59:21;;;;;;;22.15;9.57;;;3.70;99.90;;;;;;5034002;28;20040;-52
2022/12/03 06:01:46;;;;;;;21.92;9.32;;;3.70;99.90;;;;;;5033522;28;20099;-52
2022/12/03 06:04:12;;;;;;;24.42;10.70;;;3.70;99.90;;;;;;5033845;28;20400;-52
2022/12/03 06:06:37;;;;;;;22.92;10.20;;;3.60;99.90;;;;;;5055353;28;20041;-52
2022/12/03 06:09:04;;;;;;;22.33;10.63;;;3.60;99.90;;;;;;5055517;28;20088;-52
2022/12/03 06:11:32;;;;;;;21.43;10.33;;;3.60;99.90;;;;;;5037421;28;20499;-51
2022/12/03 06:13:58;;;;;;;22.83;10.05;;;3.60;99.90;;;;;;5055184;28;20052;-54
2022/12/03 06:16:24;;;;;;;21.05;10.15;;;3.70;99.90;;;;;;5055354;28;20053;-54
2022/12/03 06:18:50;;;;;;;20.90;10.23;;;3.60;99.90;;;;;;5055325;28;20040;-52
2022/12/03 06:21:16;;;;;;;21.30;9.52;;;3.60;99.90;;;;;;5055256;28;20036;-52
2022/12/03 06:23:43;;;;;;;22.80;9.80;;;3.60;99.90;;;;;;5055093;28;20505;-53
2022/12/03 06:26:13;;;;;;;20.80;9.45;;;3.60;99.90;;;;;;5055056;28;20056;-52
2022/12/03 06:28:39;;;;;;;21.67;9.70;;;3.60;99.90;;;;;;5054942;28;20130;-53
2022/12/03 06:31:05;;;;;;;19.67;8.98;;;3.60;99.90;;;;;;5055140;28;20037;-55
2022/12/03 06:33:30;;;;;;;22.52;9.10;;;3.60;99.90;;;;;;5055004;28;20038;-52
2022/12/03 06:35:56;;;;;;;22.83;9.43;;;3.60;99.90;;;;;;5055320;28;20052;-51
2022/12/03 06:38:22;;;;;;;18.98;8.85;;;3.60;99.90;;;;;;5054994;28;20044;-52
2022/12/03 06:40:48;;;;;;;22.67;9.07;;;3.60;99.90;;;;;;5054726;28;20039;-50
2022/12/03 06:43:14;;;;;;;21.45;9.40;;;3.60;99.90;;;;;;5054992;28;20039;-50
2022/12/03 06:45:40;;;;;;;24.98;10.50;;;3.60;99.90;;;;;;5037111;28;20041;-50
2022/12/03 06:48:06;;;;;;;19.70;8.85;;;3.60;99.90;;;;;;5054860;28;20048;-51
2022/12/03 06:50:32;;;;;;;20.15;9.23;;;3.60;99.90;;;;;;5054745;28;20043;-51
2022/12/03 06:52:58;;;;;;;20.48;8.75;;;3.60;99.90;;;;;;5054228;28;20033;-50
2022/12/03 06:55:23;;;;;;;19.88;8.63;;;3.60;99.90;;;;;;5054361;28;20116;-50
2022/12/03 06:57:49;;;;;;;19.83;8.80;;;3.60;99.90;;;;;;5035936;28;20421;-51
2022/12/03 07:00:15;;;;;;;21.38;9.45;;;3.60;99.90;;;;;;5034685;28;20505;-53
2022/12/03 07:02:43;;;;;;;20.95;9.73;;;3.50;99.90;;;;;;5034504;28;20096;-52
2022/12/03 07:05:08;;;;;;;17.15;8.63;;;3.60;99.90;;;;;;5034445;28;20501;-52
2022/12/03 07:07:34;;;;;;;22.15;9.75;;;3.50;99.90;;;;;;5034372;28;20076;-53
2022/12/03 07:10:00;;;;;;;21.48;9.23;;;3.60;99.90;;;;;;5034372;28;20052;-49
2022/12/03 07:12:26;;;;;;;20.83;10.20;;;3.50;99.90;;;;;;5034190;28;20107;-49
2022/12/03 07:14:51;;;;;;;22.17;9.40;;;3.50;99.90;;;;;;5034534;28;20045;-51
2022/12/03 07:17:17;;;;;;;20.77;9.63;;;3.50;99.90;;;;;;5032807;28;20064;-54
2022/12/03 07:19:43;;;;;;;21.33;10.10;;;3.50;99.90;;;;;;5034424;28;20045;-51
2022/12/03 07:22:08;;;;;;;22.70;9.05;;;3.50;99.90;;;;;;5034205;28;20124;-51
2022/12/03 07:24:34;;;;;;;19.83;9.18;;;3.50;99.90;;;;;;5016349;28;20048;-50
2022/12/03 07:27:00;;;;;;;20.25;10.10;;;3.50;99.90;;;;;;5034305;28;20064;-51
2022/12/03 07:29:25;;;;;;;23.85;10.10;;;3.50;99.90;;;;;;5034146;28;20049;-50
2022/12/03 07:31:51;;;;;;;19.58;8.65;;;3.40;99.90;;;;;;5034151;28;20045;-51
2022/12/03 07:34:17;;;;;;;21.55;9.88;;;3.50;99.90;;;;;;5033850;28;20041;-50
2022/12/03 07:36:42;;;;;;;21.42;8.85;;;3.50;99.90;;;;;;5033800;28;20489;-52
2022/12/03 07:39:08;;;;;;;20.15;8.70;;;3.40;99.90;;;;;;5033756;28;20045;-50
2022/12/03 07:41:34;;;;;;;21.33;10.25;;;3.50;99.90;;;;;;5033921;28;20038;-52
2022/12/03 07:43:59;;;;;;;20.55;8.77;;;3.40;99.90;;;;;;5033627;28;20045;-49
2022/12/03 07:46:25;;;;;;;19.10;9.55;;;3.40;99.90;;;;;;5033840;28;20056;-52
2022/12/03 07:48:50;;;;;;;22.17;10.30;;;3.40;99.90;;;;;;5032254;28;20402;-54
2022/12/03 07:51:16;;;;;;;18.55;9.52;;;3.40;99.90;;;;;;5014461;28;20044;-53
2022/12/03 07:53:42;;;;;;;21.10;9.05;;;3.50;99.90;;;;;;5014312;28;20503;-54
2022/12/03 07:56:08;;;;;;;22.05;9.23;;;3.40;99.90;;;;;;5033092;28;20536;-53
2022/12/03 07:58:33;;;;;;;18.95;8.90;;;3.40;99.90;;;;;;5030880;28;20064;-53
2022/12/03 08:00:59;;;;;;;18.92;8.88;;;3.40;99.90;;;;;;5037436;28;20120;-51
2022/12/03 08:03:25;;;;;;;17.30;7.60;;;3.40;99.90;;;;;;5050521;28;20048;-54
2022/12/03 08:05:50;;;;;;;21.60;8.88;;;3.40;99.90;;;;;;5052908;28;20414;-53
2022/12/03 08:08:16;;;;;;;22.98;9.18;;;3.40;99.90;;;;;;5017816;28;20044;-55
2022/12/03 08:10:42;;;;;;;22.48;9.63;;;3.40;99.90;;;;;;5052772;28;20037;-55
2022/12/03 08:13:13;;;;;;;21.45;8.95;;;3.40;99.90;;;;;;5052353;28;20052;-54
2022/12/03 08:15:39;;;;;;;20.35;9.18;;;3.40;99.90;;;;;;5052638;28;20033;-50
2022/12/03 08:18:16;;;;;;;23.30;10.27;;;3.40;99.90;;;;;;5050519;28;20056;-52
2022/12/03 08:20:43;;;;;;;20.55;9.07;;;3.40;99.90;;;;;;5032475;28;20048;-52
2022/12/03 08:23:13;;;;;;;20.35;8.95;;;3.30;99.90;;;;;;5032420;28;20037;-51
2022/12/03 08:25:39;;;;;;;20.85;9.57;;;3.30;99.90;;;;;;5032405;28;20065;-51
2022/12/03 08:28:17;;;;;;;22.45;9.70;;;3.30;99.90;;;;;;5032252;28;20050;-52
2022/12/03 08:31:03;;;;;;;21.80;9.48;;;3.30;99.90;;;;;;5032472;28;20103;-54
2022/12/03 08:33:35;;;;;;;20.75;9.57;;;3.20;99.90;;;;;;5032026;28;20118;-54
2022/12/03 08:36:18;;;;;;;22.83;11.00;;;3.30;99.90;;;;;;5032534;28;20121;-53
2022/12/03 08:38:53;;;;;;;24.25;9.93;;;3.30;99.90;;;;;;5032126;28;20071;-51
2022/12/03 08:42:40;;;;;;;23.90;10.77;;;3.20;99.90;;;;;;5032100;28;20080;-52
2022/12/03 08:44:31;;;;;;;22.17;10.27;;;3.20;99.90;;;;;;5016946;28;20124;-55
2022/12/03 08:47:18;;;;;;;25.10;10.88;;;3.20;99.90;;;;;;5005524;28;20168;-52
2022/12/03 08:49:56;;;;;;;24.08;10.70;;;3.20;99.90;;;;;;5032074;28;20049;-54
2022/12/03 08:52:29;;;;;;;23.42;10.98;;;3.20;99.90;;;;;;5031714;28;20053;-55
2022/12/03 08:54:55;;;;;;;22.83;10.20;;;3.20;99.90;;;;;;5031778;28;20037;-51
2022/12/03 08:57:28;;;;;;;22.60;10.80;;;3.20;99.90;;;;;;5045274;28;20028;-52
2022/12/03 08:59:58;;;;;;;23.83;11.10;;;3.20;99.90;;;;;;5051629;28;20376;-52
2022/12/03 09:02:31;;;;;;;25.15;11.02;;;3.20;99.90;;;;;;5050691;28;20424;-51
2022/12/03 09:05:01;;;;;;;23.83;10.48;;;3.20;99.90;;;;;;5051062;28;20055;-53
2022/12/03 09:07:27;;;;;;;23.80;10.20;;;3.10;99.90;;;;;;5050794;28;20051;-53
2022/12/03 09:09:52;;;;;;;23.02;11.30;;;3.10;99.90;;;;;;5033373;28;20044;-51
2022/12/03 09:12:18;;;;;;;23.58;10.45;;;3.20;99.90;;;;;;5051471;28;20053;-56
2022/12/03 09:14:44;;;;;;;22.27;11.25;;;3.10;99.90;;;;;;5051575;28;20072;-53
2022/12/03 09:17:09;;;;;;;23.65;11.02;;;3.20;99.90;;;;;;5052158;28;20045;-54
2022/12/03 09:19:35;;;;;;;25.48;12.05;;;3.20;99.90;;;;;;5052392;28;20044;-53
2022/12/03 09:22:01;;;;;;;25.13;10.00;;;3.20;99.90;;;;;;5052019;28;20477;-54
2022/12/03 09:24:26;;;;;;;26.27;11.15;;;3.20;99.90;;;;;;5051464;28;20048;-54
2022/12/03 09:26:52;;;;;;;23.40;10.18;;;3.20;99.90;;;;;;5017505;28;20072;-54
2022/12/03 09:29:17;;;;;;;24.10;10.23;;;3.30;99.90;;;;;;5051968;28;20102;-53
2022/12/03 09:31:43;;;;;;;25.52;11.25;;;3.30;99.90;;;;;;5033709;28;20128;-52
2022/12/03 09:34:09;;;;;;;25.02;11.68;;;3.30;99.90;;;;;;5052229;28;20068;-52
2022/12/03 09:36:35;;;;;;;23.33;10.40;;;3.30;99.90;;;;;;5052143;28;20143;-52
2022/12/03 09:39:01;;;;;;;25.95;12.73;;;3.40;99.90;;;;;;5051329;28;20525;-52
2022/12/03 09:41:27;;;;;;;27.23;12.77;;;3.30;99.90;;;;;;5051235;28;20401;-51
2022/12/03 09:43:53;;;;;;;25.05;11.18;;;3.30;99.90;;;;;;5033872;28;20120;-54
2022/12/03 09:46:20;;;;;;;24.48;11.95;;;3.30;99.90;;;;;;5050145;28;20112;-53
2022/12/03 09:48:46;;;;;;;27.65;12.80;;;3.30;99.90;;;;;;5051918;28;20037;-54
2022/12/03 09:51:12;;;;;;;23.73;11.68;;;3.40;99.90;;;;;;5052000;28;20177;-55
2022/12/03 09:53:38;;;;;;;25.48;11.13;;;3.40;99.90;;;;;;5051868;28;20041;-53
2022/12/03 09:56:04;;;;;;;27.88;11.93;;;3.40;99.90;;;;;;5029892;28;20046;-55
2022/12/03 09:58:30;;;;;;;25.52;11.60;;;3.30;99.90;;;;;;5036550;28;20033;-51
2022/12/03 10:00:56;;;;;;;24.85;10.98;;;3.30;99.90;;;;;;5038965;28;20094;-53
2022/12/03 10:03:27;;;;;;;25.00;11.18;;;3.30;99.90;;;;;;5031854;28;20051;-56
2022/12/03 10:05:53;;;;;;;26.98;11.15;;;3.30;99.90;;;;;;5013999;28;20140;-51
2022/12/03 10:08:22;;;;;;;23.65;11.38;;;3.30;99.90;;;;;;5038401;28;20041;-52
2022/12/03 10:10:50;;;;;;;25.05;11.55;;;3.20;99.90;;;;;;5040793;28;20040;-54
2022/12/03 10:13:24;;;;;;;27.13;11.02;;;3.30;99.90;;;;;;5022662;28;20041;-54
2022/12/03 10:15:52;;;;;;;24.00;11.15;;;3.30;99.90;;;;;;5040651;28;20033;-53
2022/12/03 10:18:25;;;;;;;26.05;11.40;;;3.30;99.90;;;;;;5024938;28;20056;-52
2022/12/03 10:20:51;;;;;;;25.10;10.35;;;3.30;99.90;;;;;;5042421;28;20037;-54
2022/12/03 10:23:44;;;;;;;23.67;11.95;;;3.30;99.90;;;;;;5043043;28;20037;-53
2022/12/03 10:26:10;;;;;;;28.23;12.70;;;3.30;99.90;;;;;;5039565;28;20054;-51
2022/12/03 10:28:42;;;;;;;27.20;12.98;;;3.30;99.90;;;;;;5040587;28;20150;-52
2022/12/03 10:31:10;;;;;;;28.73;11.65;;;3.30;99.90;;;;;;5040681;28;20440;-53
2022/12/03 10:33:44;;;;;;;22.48;11.57;;;3.20;99.90;;;;;;5040200;28;20038;-53
2022/12/03 10:36:24;;;;;;;27.70;12.15;;;3.30;99.90;;;;;;5042046;28;20060;-53
2022/12/03 10:39:19;;;;;;;27.70;12.20;;;3.30;99.90;;;;;;5043415;28;20033;-53
2022/12/03 10:41:45;;;;;;;24.05;11.35;;;3.40;99.90;;;;;;5006264;28;20076;-56
2022/12/03 10:44:18;;;;;;;28.13;11.77;;;3.40;99.90;;;;;;5031896;28;20083;-55
2022/12/03 10:46:45;;;;;;;26.25;11.15;;;3.40;99.90;;;;;;5031441;28;20060;-54
2022/12/03 10:49:16;;;;;;;23.90;11.15;;;3.40;99.90;;;;;;5031492;28;20041;-51
2022/12/03 10:51:43;;;;;;;27.90;12.32;;;3.40;99.90;;;;;;5033642;28;20486;-52
2022/12/03 10:54:22;;;;;;;23.50;11.18;;;3.40;99.90;;;;;;5037606;28;20044;-54
2022/12/03 10:56:50;;;;;;;22.70;10.40;;;3.40;99.90;;;;;;5050558;28;20092;-45
2022/12/03 10:59:21;;;;;;;25.70;11.18;;;3.50;99.90;;;;;;5054509;28;20040;-45
2022/12/03 11:01:48;;;;;;;24.90;11.20;;;3.50;99.90;;;;;;5054836;28;20044;-44
2022/12/03 11:04:31;;;;;;;25.88;11.35;;;3.40;99.90;;;;;;5054962;28;20044;-44
2022/12/03 11:06:58;;;;;;;23.83;10.63;;;3.50;99.90;;;;;;5054635;28;20474;-44
2022/12/03 11:09:27;;;;;;;26.48;10.68;;;3.50;99.90;;;;;;5036721;28;20045;-44
2022/12/03 11:11:53;;;;;;;26.25;11.52;;;3.50;99.90;;;;;;5043644;28;20068;-44
2022/12/03 11:14:50;;;;;;;27.65;11.60;;;3.50;99.90;;;;;;5035488;28;20433;-44
2022/12/03 11:17:38;;;;;;;24.17;10.30;;;3.50;99.90;;;;;;5054375;28;20044;-44
2022/12/03 11:20:07;;;;;;;27.95;11.75;;;3.60;99.90;;;;;;5054326;28;20379;-44
2022/12/03 11:22:49;;;;;;;27.27;11.65;;;3.60;99.90;;;;;;5054402;28;20055;-44
2022/12/03 11:25:24;;;;;;;24.77;11.30;;;3.60;99.90;;;;;;5054328;28;20052;-44
2022/12/03 11:28:14;;;;;;;22.95;10.77;;;3.60;99.90;;;;;;5054155;28;20675;-43
2022/12/03 11:30:49;;;;;;;25.75;11.57;;;3.60;99.90;;;;;;5054516;28;20452;-45
2022/12/03 11:33:32;;;;;;;30.65;11.40;;;3.60;99.90;;;;;;5054221;28;20049;-43
2022/12/03 11:36:03;;;;;;;25.90;11.45;;;3.60;99.90;;;;;;5054166;28;20512;-44
2022/12/03 11:38:39;;;;;;;28.23;12.23;;;3.50;99.90;;;;;;5053983;28;20033;-44
2022/12/03 11:41:30;;;;;;;26.27;11.93;;;3.50;99.90;;;;;;5054280;28;20057;-43
2022/12/03 11:43:58;;;;;;;22.60;10.95;;;3.50;99.90;;;;;;5036432;28;20041;-55
2022/12/03 11:46:36;;;;;;;26.90;11.45;;;3.50;99.90;;;;;;5053936;28;20123;-44
2022/12/03 11:49:16;;;;;;;25.02;12.07;;;3.60;99.90;;;;;;5054145;28;20103;-44
2022/12/03 11:51:43;;;;;;;27.35;12.60;;;3.50;99.90;;;;;;5053856;28;20053;-44
2022/12/03 11:54:15;;;;;;;29.73;13.27;;;3.50;99.90;;;;;;5054015;28;20520;-44
2022/12/03 11:56:44;;;;;;;35.53;14.15;;;3.50;99.90;;;;;;5044833;28;20045;-44
2022/12/03 11:59:11;;;;;;;28.05;13.70;;;3.40;99.90;;;;;;5033530;28;20037;-45
2022/12/03 12:01:39;;;;;;;32.15;13.88;;;3.40;99.90;;;;;;5033363;28;20080;-44
2022/12/03 12:04:07;;;;;;;26.00;12.35;;;3.40;99.90;;;;;;5033426;28;20050;-43
2022/12/03 12:06:43;;;;;;;28.77;13.45;;;3.40;99.90;;;;;;5033621;28;20143;-46
2022/12/03 12:09:09;;;;;;;27.02;13.85;;;3.30;99.90;;;;;;5033706;28;20343;-46
2022/12/03 12:11:39;;;;;;;27.33;13.05;;;3.30;99.90;;;;;;5033524;28;20083;-47
2022/12/03 12:14:07;;;;;;;27.55;13.48;;;3.30;99.90;;;;;;5033318;28;20068;-44
2022/12/03 12:16:49;;;;;;;26.95;11.50;;;3.40;99.90;;;;;;5035870;28;20032;-44
2022/12/03 12:19:37;;;;;;;25.13;11.48;;;3.30;99.90;;;;;;5043213;28;20037;-44
2022/12/03 12:22:21;;;;;;;27.60;12.23;;;3.30;99.90;;;;;;5044177;28;20056;-44
2022/12/03 12:24:52;;;;;;;26.98;12.48;;;3.40;99.90;;;;;;5044640;28;20069;-44
2022/12/03 12:27:32;;;;;;;29.77;12.18;;;3.30;99.90;;;;;;5042120;28;20052;-43
2022/12/03 12:30:11;;;;;;;29.17;13.18;;;3.30;99.90;;;;;;5035786;28;20052;-45
2022/12/03 12:33:04;;;;;;;26.05;12.25;;;3.30;99.90;;;;;;5042978;28;20462;-44
2022/12/03 12:35:31;;;;;;;28.40;12.70;;;3.30;99.90;;;;;;5029465;28;20051;-44
2022/12/03 12:38:20;;;;;;;29.48;14.63;;;3.30;99.90;;;;;;5038284;28;20069;-44
2022/12/03 12:40:48;;;;;;;29.80;12.90;;;3.30;99.90;;;;;;5000073;28;20068;-44
2022/12/03 12:43:20;;;;;;;27.02;12.48;;;3.40;99.90;;;;;;5014877;28;20045;-44
2022/12/03 12:45:46;;;;;;;26.63;12.38;;;3.30;99.90;;;;;;5032674;28;20043;-44
2022/12/03 12:48:19;;;;;;;31.13;13.13;;;3.40;99.90;;;;;;5032810;28;20508;-45
2022/12/03 12:50:49;;;;;;;28.02;12.45;;;3.40;99.90;;;;;;5014976;28;20393;-44
2022/12/03 12:53:27;;;;;;;28.10;13.13;;;3.40;99.90;;;;;;5032457;28;20049;-44
2022/12/03 12:55:58;;;;;;;23.80;11.07;;;3.30;99.90;;;;;;5035094;28;20037;-44
2022/12/03 12:58:26;;;;;;;27.70;12.13;;;3.30;99.90;;;;;;5052184;28;20036;-45
2022/12/03 13:00:55;;;;;;;31.27;12.48;;;3.30;99.90;;;;;;5052486;28;20425;-43
2022/12/03 13:03:27;;;;;;;30.52;13.20;;;3.30;99.90;;;;;;5052310;28;20116;-44
2022/12/03 13:05:54;;;;;;;30.30;12.67;;;3.30;99.90;;;;;;5052611;28;20048;-44
2022/12/03 13:08:29;;;;;;;30.92;13.48;;;3.30;99.90;;;;;;5052519;28;20463;-44
2022/12/03 13:10:57;;;;;;;27.20;13.05;;;3.30;99.90;;;;;;5051986;28;20048;-44